Main page
METAR-TAF:

METAR-TAF

Airports :

De Kooy Airfield

Den Helder, Netherlands

latitude: 52-55N, longitude: 004-47E, elevation: 0 m

Current weather observation

The report was made 37 minutes ago, at 05:55 UTC
Wind 8 kt from the Northeast
Temperature 2°C
Humidity 55%
Pressure 1028 hPa
Visibility 10 km or more

METAR: EHKD 050555Z AUTO 04008KT 9999 NCD 02/M06 Q1028 BLU NOSIG

Time: 07:32 (06:32 UTC)

Forecast

The report was made 56 minutes ago, at 05:36 UTC
Forecast valid from 05 at 06 UTC to 05 at 18 UTC
Wind 7 kt from the North/Northeast
Visibility 10 km or more
Scattered clouds at a height of 3000 ft
Temporary
from 05 at 10 UTC to 05 at 16 UTC
Wind 9 kt from the North/Northeast with gusts up to 20 kt

TAF: EHKD 050536Z 0506/0518 03007KT 9999 SCT030 TEMPO 0510/0516 03009G20KT

Weather observations and forecasts of more than 4000 airports (METAR and TAF reports).

The available stations are represented by yellow and red dots on the map.

Hover mouse over dot to see the name of the station.

Then click to see weather observations and forecasts.

To change the map : click on the green buttons with a black cross to zoom in, on the green button with a dash to zoom out, or on the green arrows for adjacent maps.


METAR-TAF: